Time;durP1;ratioP1;P1;durP2;ratioP2;P2;SDS_P1;SDS_P2;PMS_P1;PMS_P2;Temp;Humidity;BMP_temperature;BMP_pressure;BME280_temperature;BME280_humidity;BME280_pressure;Samples;Min_cycle;Max_cycle;Signal;HPM_P1;HPM_P2
2022/05/03 00:00:12;;;;;;;13.23;4.17;;;;;;;12.68;49.27;100572.00;124926;1099;104162;-74
2022/05/03 00:03:11;;;;;;;13.95;4.47;;;;;;;12.65;49.38;100579.80;124870;1099;104267;-74
2022/05/03 00:05:51;;;;;;;8.37;4.13;;;;;;;12.63;49.32;100573.61;124783;1099;103213;-75
2022/05/03 00:08:29;;;;;;;9.57;3.87;;;;;;;12.62;49.40;100570.10;124811;1099;104290;-74
2022/05/03 00:11:09;;;;;;;10.13;4.07;;;;;;;12.61;49.44;100570.06;124859;1098;104174;-75
2022/05/03 00:13:51;;;;;;;9.77;4.20;;;;;;;12.58;49.75;100569.10;124887;1099;104255;-76
2022/05/03 00:16:24;;;;;;;11.73;4.13;;;;;;;12.56;49.89;100565.55;124877;1099;104306;-76
2022/05/03 00:18:56;;;;;;;8.20;3.83;;;;;;;12.54;49.50;100567.25;124862;1099;104159;-75
2022/05/03 00:21:28;;;;;;;7.97;4.00;;;;;;;12.51;49.77;100561.89;124983;1099;104229;-76
2022/05/03 00:24:00;;;;;;;9.90;4.00;;;;;;;12.50;49.74;100559.22;124891;1099;104198;-75
2022/05/03 00:26:32;;;;;;;11.37;4.50;;;;;;;12.48;49.88;100563.52;125006;1099;101915;-76
2022/05/03 00:29:05;;;;;;;8.37;3.90;;;;;;;12.47;49.92;100556.50;125005;1099;104156;-76
2022/05/03 00:31:36;;;;;;;7.77;3.80;;;;;;;12.43;50.19;100558.13;124961;1099;103149;-76
2022/05/03 00:34:09;;;;;;;8.20;3.57;;;;;;;12.41;50.05;100554.57;125001;1099;104171;-76
2022/05/03 00:36:41;;;;;;;6.87;3.60;;;;;;;12.41;49.91;100559.83;124959;1099;104175;-76
2022/05/03 00:39:13;;;;;;;11.67;3.80;;;;;;;12.39;50.02;100561.53;124957;1099;104232;-76
2022/05/03 00:41:52;;;;;;;6.90;3.57;;;;;;;12.36;50.36;100556.19;124943;1098;104291;-75
2022/05/03 00:47:30;;;;;;;9.03;3.70;;;;;;;12.32;50.18;100552.55;124967;1099;104245;-76
2022/05/03 00:50:08;;;;;;;8.60;3.73;;;;;;;12.30;50.48;100562.14;124872;1099;104168;-76
2022/05/03 00:52:47;;;;;;;8.67;3.57;;;;;;;12.29;50.34;100559.47;124961;1099;102236;-76
2022/05/03 00:55:47;;;;;;;6.07;3.33;;;;;;;12.27;50.34;100555.91;124914;1099;117797;-75
2022/05/03 00:58:36;;;;;;;11.13;3.97;;;;;;;12.23;50.09;100553.19;125047;1099;104188;-75
2022/05/03 01:01:20;;;;;;;8.87;3.50;;;;;;;12.23;50.39;100550.56;124860;1098;104318;-75
2022/05/03 01:04:03;;;;;;;8.35;3.50;;;;;;;12.21;50.55;100546.09;124898;1099;101834;-75
2022/05/03 01:06:45;;;;;;;7.87;3.87;;;;;;;12.19;50.57;100546.04;124956;1099;104223;-76
2022/05/03 01:09:24;;;;;;;9.93;3.70;;;;;;;12.19;50.65;100542.53;124949;1098;104433;-76
2022/05/03 01:12:07;;;;;;;7.40;3.43;;;;;;;12.18;50.53;100541.61;124971;1099;104287;-76
2022/05/03 01:14:51;;;;;;;6.60;3.53;;;;;;;12.15;50.82;100544.16;124871;1099;101828;-76
2022/05/03 01:17:34;;;;;;;9.35;3.60;;;;;;;12.11;50.98;100544.93;124902;1097;102746;-76
2022/05/03 01:20:06;;;;;;;;;;;;;;;12.09;50.96;100541.38;124935;1099;104251;-76
2022/05/03 01:23:12;;;;;;;11.00;3.50;;;;;;;12.08;50.96;100544.84;124951;1099;104259;-76
2022/05/03 01:26:17;;;;;;;7.57;3.83;;;;;;;12.08;50.96;100544.84;124873;1099;108120;-75
2022/05/03 01:29:05;;;;;;;12.28;3.92;;;;;;;12.08;51.08;100546.58;124868;1099;102787;-75
2022/05/03 01:31:38;;;;;;;10.67;3.70;;;;;;;12.08;51.10;100546.58;124779;1099;102378;-75
2022/05/03 01:34:12;;;;;;;7.10;3.50;;;;;;;12.07;51.18;100534.27;125031;1099;104220;-75
2022/05/03 01:36:57;;;;;;;;;;;;;;;12.02;51.23;100534.12;125041;1099;104366;-75
2022/05/03 01:39:40;;;;;;;7.33;3.53;;;;;;;11.99;51.44;100534.03;124932;1099;104278;-75
2022/05/03 01:42:23;;;;;;;6.67;3.50;;;;;;;11.96;51.26;100542.71;124961;1099;104229;-76
2022/05/03 01:45:02;;;;;;;9.17;3.70;;;;;;;11.94;51.61;100546.16;124963;1099;102521;-75
2022/05/03 01:47:44;;;;;;;6.57;3.50;;;;;;;11.89;51.32;100548.61;125056;1099;102113;-75
2022/05/03 01:50:26;;;;;;;6.40;3.57;;;;;;;11.85;51.65;100550.23;124991;1099;104288;-75
2022/05/03 01:53:19;;;;;;;8.03;3.80;;;;;;;11.84;51.71;100548.47;124848;1098;104217;-75
2022/05/03 01:56:18;;;;;;;9.93;3.70;;;;;;;11.81;51.60;100545.74;124881;1099;104157;-75
2022/05/03 01:59:05;;;;;;;11.17;4.10;;;;;;;11.77;51.67;100541.22;124944;1099;102890;-76
2022/05/03 02:01:52;;;;;;;7.13;3.60;;;;;;;11.77;51.71;100549.11;124909;1098;104201;-76
2022/05/03 02:04:41;;;;;;;6.33;3.57;;;;;;;11.76;51.85;100543.80;124879;1099;104320;-76
2022/05/03 02:07:25;;;;;;;8.57;3.90;;;;;;;11.72;52.04;100548.08;124958;1099;104398;-75
2022/05/03 02:10:05;;;;;;;7.72;3.90;;;;;;;11.70;52.15;100541.86;125032;1099;104195;-75
2022/05/03 02:12:38;;;;;;;6.90;3.40;;;;;;;11.62;52.12;100549.50;125104;1099;104350;-76
2022/05/03 02:15:14;;;;;;;7.27;3.80;;;;;;;11.53;52.54;100549.23;125062;1099;104297;-76
2022/05/03 02:17:53;;;;;;;12.40;5.53;;;;;;;11.40;52.90;100552.28;125111;1099;104465;-76
2022/05/03 02:20:56;;;;;;;11.30;5.57;;;;;;;11.27;52.89;100556.25;125048;1099;102861;-75
2022/05/03 02:23:42;;;;;;;14.53;6.40;;;;;;;11.13;53.20;100558.40;124879;1098;104182;-75
2022/05/03 02:26:29;;;;;;;15.13;6.40;;;;;;;11.09;53.33;100556.50;124932;1099;104172;-75
2022/05/03 02:29:12;;;;;;;13.65;5.95;;;;;;;11.08;53.48;100557.33;124950;1098;102790;-76
2022/05/03 02:31:51;;;;;;;15.37;6.20;;;;;;;11.08;53.33;100557.33;124958;1099;103322;-75
2022/05/03 02:34:35;;;;;;;14.90;6.40;;;;;;;11.07;53.41;100559.07;124904;1099;104266;-75
2022/05/03 02:37:11;;;;;;;;;;;;;;;11.07;53.14;100563.44;124942;1099;102881;-76
2022/05/03 02:39:52;;;;;;;15.03;6.27;;;;;;;11.06;53.43;100559.90;124879;1099;104268;-75
2022/05/03 02:42:25;;;;;;;13.77;5.67;;;;;;;11.07;53.26;100558.19;124900;1099;104194;-75
2022/05/03 02:44:57;;;;;;;17.87;5.90;;;;;;;11.09;53.75;100560.00;124925;1099;104153;-76
2022/05/03 02:47:42;;;;;;;14.23;5.90;;;;;;;11.09;54.04;100557.38;124910;1099;104222;-75
2022/05/03 02:50:13;;;;;;;;;;;;;;;11.09;54.09;100557.38;124952;1099;102368;-76
2022/05/03 02:52:54;;;;;;;14.83;6.23;;;;;;;11.11;53.56;100553.09;124941;1097;102288;-75
2022/05/03 02:55:36;;;;;;;15.55;6.10;;;;;;;11.15;54.26;100564.59;125049;1099;101800;-75
2022/05/03 02:58:20;;;;;;;13.80;5.77;;;;;;;11.18;54.12;100562.06;124915;1099;104378;-75
2022/05/03 03:04:10;;;;;;;11.27;5.07;;;;;;;11.20;54.35;100563.00;124873;1099;104179;-75
2022/05/03 03:06:44;;;;;;;12.63;5.50;;;;;;;11.21;54.29;100556.04;124919;1098;104159;-75
2022/05/03 03:09:22;;;;;;;17.17;5.90;;;;;;;11.21;54.20;100556.04;125068;1099;104185;-75
2022/05/03 03:12:03;;;;;;;15.93;6.00;;;;;;;11.22;54.46;100553.46;124924;1099;104188;-75
2022/05/03 03:14:41;;;;;;;13.97;6.10;;;;;;;11.24;54.70;100561.39;124952;1099;102932;-76
2022/05/03 03:17:19;;;;;;;9.53;4.93;;;;;;;11.27;54.50;100557.12;124843;1099;102261;-75
2022/05/03 03:20:08;;;;;;;19.23;5.60;;;;;;;11.30;54.65;100551.09;124941;1099;104208;-75
2022/05/03 03:22:42;;;;;;;24.00;6.00;;;;;;;11.35;54.84;100552.13;124990;1099;104198;-76
2022/05/03 03:25:17;;;;;;;18.07;5.90;;;;;;;11.38;54.72;100557.48;124953;1099;104232;-76
2022/05/03 03:27:51;;;;;;;14.13;6.10;;;;;;;11.43;54.91;100552.39;124871;1098;104177;-75
2022/05/03 03:30:23;;;;;;;15.23;5.53;;;;;;;11.46;54.96;100553.38;124962;1099;102935;-75
2022/05/03 03:32:56;;;;;;;13.03;5.33;;;;;;;11.49;54.95;100553.47;124864;1099;104315;-75
2022/05/03 03:35:29;;;;;;;14.65;5.45;;;;;;;11.53;54.72;100556.20;124875;1099;102833;-76
2022/05/03 03:38:03;;;;;;;13.53;5.77;;;;;;;11.56;55.05;100556.30;125080;1099;104354;-76
2022/05/03 03:40:34;;;;;;;17.17;5.43;;;;;;;11.59;54.76;100562.54;126494;1098;104022;-76
2022/05/03 03:43:07;;;;;;;16.97;5.27;;;;;;;11.64;54.97;100562.69;125990;1098;104188;-76
2022/05/03 03:45:38;;;;;;;12.87;4.90;;;;;;;11.70;54.98;100565.52;125291;1099;104172;-77
2022/05/03 03:48:11;;;;;;;14.30;5.90;;;;;;;11.76;55.11;100562.20;125430;1097;104197;-77
2022/05/03 03:50:46;;;;;;;15.63;6.00;;;;;;;11.79;54.90;100565.81;125392;1099;102285;-77
2022/05/03 03:53:18;;;;;;;15.50;5.73;;;;;;;11.79;55.04;100570.19;125295;1099;104232;-77
2022/05/03 03:55:49;;;;;;;14.33;6.60;;;;;;;11.83;55.12;100559.82;125642;1099;104287;-77
2022/05/03 03:58:21;;;;;;;17.70;6.53;;;;;;;11.83;55.26;100554.56;125497;1099;104166;-77
2022/05/03 04:00:53;;;;;;;16.63;6.50;;;;;;;11.83;55.34;100565.08;125300;1099;102085;-77
2022/05/03 04:03:25;;;;;;;19.50;6.77;;;;;;;11.81;55.33;100556.26;125282;1098;103054;-76
2022/05/03 04:05:58;;;;;;;16.20;6.37;;;;;;;11.84;55.44;100568.59;125267;1099;102774;-77
2022/05/03 04:08:31;;;;;;;15.43;6.83;;;;;;;11.87;55.33;100572.23;125318;1099;104179;-77
2022/05/03 04:11:17;;;;;;;14.57;6.03;;;;;;;11.92;55.36;100555.69;125335;1099;102104;-77
2022/05/03 04:13:51;;;;;;;14.63;6.40;;;;;;;11.91;55.37;100565.31;125277;1099;104255;-76
2022/05/03 04:16:23;;;;;;;19.87;6.30;;;;;;;11.94;55.47;100554.93;125361;1099;102975;-76
2022/05/03 04:18:56;;;;;;;18.47;6.47;;;;;;;12.04;55.49;100563.98;126999;1098;104371;-77
2022/05/03 04:21:31;;;;;;;26.07;9.97;;;;;;;12.14;55.73;100562.52;125848;1099;104101;-75
2022/05/03 04:24:06;;;;;;;22.60;8.37;;;;;;;12.22;55.63;100561.03;126016;1098;103318;-76
2022/05/03 04:26:41;;;;;;;21.70;6.87;;;;;;;12.29;55.57;100555.09;127012;1098;101815;-76
2022/05/03 04:29:14;;;;;;;20.10;7.10;;;;;;;12.41;55.59;100559.83;126680;1098;102059;-76
2022/05/03 04:31:47;;;;;;;18.00;6.62;;;;;;;12.48;55.76;100556.55;125926;1099;104246;-76
2022/05/03 04:34:19;;;;;;;17.27;7.47;;;;;;;12.52;55.96;100557.52;126735;1098;104142;-76
2022/05/03 04:36:51;;;;;;;16.20;6.27;;;;;;;12.58;55.93;100560.32;125902;1099;104290;-76
2022/05/03 04:39:23;;;;;;;21.90;7.50;;;;;;;12.62;55.75;100559.58;125939;1099;101724;-76
2022/05/03 04:41:58;;;;;;;19.30;6.43;;;;;;;12.68;56.33;100558.83;125902;1099;104149;-76
2022/05/03 04:44:29;;;;;;;21.80;6.90;;;;;;;12.78;55.54;100558.25;125504;1099;104210;-75
2022/05/03 04:47:00;;;;;;;17.63;7.27;;;;;;;12.89;55.34;100562.06;125107;1099;102364;-75
2022/05/03 04:49:32;;;;;;;17.50;6.83;;;;;;;12.98;55.94;100548.27;124909;1099;104220;-74
2022/05/03 04:52:05;;;;;;;19.00;6.33;;;;;;;13.07;55.70;100558.13;125620;1099;102064;-74
2022/05/03 04:54:38;;;;;;;16.17;6.85;;;;;;;13.14;55.88;100552.19;125649;1099;102123;-75
2022/05/03 04:57:11;;;;;;;17.10;7.27;;;;;;;13.24;55.62;100563.84;124983;1099;103066;-74
2022/05/03 04:59:42;;;;;;;17.50;6.87;;;;;;;13.37;55.43;100557.17;125508;1099;104309;-75
2022/05/03 05:02:17;;;;;;;17.03;6.83;;;;;;;13.47;55.02;100551.28;124766;1099;101987;-74
2022/05/03 05:04:48;;;;;;;18.10;6.90;;;;;;;13.57;55.56;100544.48;125002;1099;104236;-75
2022/05/03 05:07:20;;;;;;;17.63;6.83;;;;;;;13.68;54.86;100550.93;124515;1099;104427;-75
2022/05/03 05:12:43;;;;;;;23.35;6.80;;;;;;;13.82;55.03;100546.86;124641;1099;102888;-75
2022/05/03 05:15:13;;;;;;;;;;;;;;;13.89;54.17;100542.61;125011;1102;104176;-75
2022/05/03 05:17:45;;;;;;;20.33;7.27;;;;;;;13.99;55.29;100539.34;125329;1099;104239;-74
2022/05/03 05:20:16;;;;;;;20.73;7.07;;;;;;;14.09;54.56;100544.81;125223;1099;104208;-75
2022/05/03 05:22:49;;;;;;;23.53;7.33;;;;;;;14.13;54.40;100546.64;125072;1099;104280;-75
2022/05/03 05:25:21;;;;;;;20.97;7.07;;;;;;;14.19;54.34;100550.33;125088;1099;102876;-75
2022/05/03 05:27:52;;;;;;;18.95;7.10;;;;;;;14.26;54.24;100543.42;125019;1099;103305;-74
2022/05/03 05:30:24;;;;;;;17.97;7.00;;;;;;;14.34;54.36;100539.19;124952;1099;104188;-74
2022/05/03 05:32:56;;;;;;;17.20;7.03;;;;;;;14.42;54.83;100538.47;125115;1098;104223;-74
2022/05/03 05:35:32;;;;;;;18.70;6.60;;;;;;;14.51;54.61;100546.58;125234;1099;104487;-74
2022/05/03 05:38:05;;;;;;;19.40;7.03;;;;;;;14.55;54.56;100545.77;125215;1099;102348;-74
2022/05/03 05:40:36;;;;;;;19.87;6.73;;;;;;;14.68;53.71;100555.76;125771;1098;104130;-75
2022/05/03 05:43:08;;;;;;;23.53;7.47;;;;;;;14.77;53.24;100554.16;125077;1099;102546;-74
2022/05/03 05:45:42;;;;;;;18.00;7.57;;;;;;;14.80;52.86;100554.21;125190;1098;104212;-74
2022/05/03 05:48:14;;;;;;;18.33;7.67;;;;;;;14.86;53.69;100552.56;125127;1099;104184;-76
2022/05/03 05:50:57;;;;;;;18.23;6.97;;;;;;;14.95;53.28;100556.27;125109;1099;102862;-76
2022/05/03 05:53:35;;;;;;;15.13;6.80;;;;;;;15.02;53.08;100559.05;125467;1099;104631;-77
2022/05/03 05:56:11;;;;;;;21.07;6.70;;;;;;;15.12;53.10;100554.81;125740;1099;102135;-77
2022/05/03 05:58:45;;;;;;;15.70;5.97;;;;;;;15.24;53.05;100559.45;125402;1099;102618;-78
2022/05/03 06:01:19;;;;;;;20.00;6.75;;;;;;;15.30;52.25;100561.28;125293;1098;107797;-76
2022/05/03 06:03:54;;;;;;;18.17;6.87;;;;;;;15.43;52.73;100561.52;125602;1099;102235;-78
2022/05/03 06:06:25;;;;;;;13.85;6.60;;;;;;;15.60;52.38;100563.57;125811;1099;104277;-77
2022/05/03 06:09:09;;;;;;;20.33;7.47;;;;;;;15.74;52.43;100551.44;125500;1099;102423;-78
2022/05/03 06:11:49;;;;;;;22.13;7.60;;;;;;;15.81;52.87;100557.73;125230;1099;118473;-77
2022/05/03 06:14:30;;;;;;;18.87;7.03;;;;;;;15.89;52.45;100548.16;125496;1099;104251;-77
2022/05/03 06:17:09;;;;;;;22.80;7.87;;;;;;;15.91;52.03;100548.17;125667;1099;102402;-76
2022/05/03 06:20:04;;;;;;;20.63;7.47;;;;;;;16.00;52.22;100553.60;125304;1099;104236;-75
2022/05/03 06:22:57;;;;;;;21.00;7.23;;;;;;;16.04;52.50;100550.14;125127;1098;105354;-78
2022/05/03 06:25:41;;;;;;;14.67;5.90;;;;;;;16.07;52.33;100552.83;125637;1099;104268;-77
2022/05/03 06:28:14;;;;;;;15.43;5.60;;;;;;;16.17;51.97;100545.90;125517;1099;104693;-77
2022/05/03 06:30:50;;;;;;;17.43;5.87;;;;;;;16.22;51.62;100548.61;125940;1099;102868;-77
2022/05/03 06:33:47;;;;;;;13.77;5.60;;;;;;;16.30;51.65;100553.16;125612;1099;104163;-78
2022/05/03 06:39:48;;;;;;;16.77;6.30;;;;;;;16.52;51.66;100559.60;125393;1099;103689;-78
2022/05/03 06:42:20;;;;;;;17.07;6.27;;;;;;;16.58;51.83;100552.59;124665;1099;104721;-79
2022/05/03 06:45:01;;;;;;;16.70;6.73;;;;;;;16.62;51.15;100562.36;125898;1099;102364;-78
2022/05/03 06:51:11;;;;;;;13.23;6.70;;;;;;;16.74;51.13;100564.28;125860;1099;102467;-78
2022/05/03 06:53:45;;;;;;;20.27;6.87;;;;;;;16.84;50.54;100561.75;124925;1099;104399;-78
2022/05/03 06:56:53;;;;;;;19.13;6.57;;;;;;;16.93;50.55;100555.67;125734;1102;102305;-78
2022/05/03 06:59:27;;;;;;;8.80;4.80;;;;;;;17.09;50.51;100554.06;125578;1102;102322;-78
2022/05/03 07:02:04;;;;;;;18.00;5.93;;;;;;;17.29;50.52;100556.03;125056;1100;104150;-80
2022/05/03 07:04:38;;;;;;;13.17;5.77;;;;;;;17.44;50.10;100558.82;124968;1099;103287;-79
2022/05/03 07:07:15;;;;;;;11.93;4.03;;;;;;;17.58;49.12;100554.50;124759;1099;104159;-81
2022/05/03 07:10:00;;;;;;;9.60;3.37;;;;;;;17.65;48.51;100543.94;125307;1102;102505;-77
2022/05/03 07:12:33;;;;;;;6.07;3.30;;;;;;;17.69;48.43;100540.45;125320;1099;103209;-79
2022/05/03 07:15:21;;;;;;;5.90;3.20;;;;;;;17.85;47.94;100550.27;125282;1099;102354;-78
2022/05/03 07:24:07;;;;;;;7.70;3.27;;;;;;;18.01;47.16;100553.94;125306;1099;104217;-78
2022/05/03 07:26:41;;;;;;;8.13;3.50;;;;;;;18.06;46.59;100554.88;125498;1099;102623;-78
2022/05/03 07:32:07;;;;;;;4.03;2.77;;;;;;;18.32;45.37;100552.36;125256;1099;102572;-79
2022/05/03 07:34:39;;;;;;;5.53;3.00;;;;;;;18.45;44.99;100560.36;125588;1099;102819;-78
2022/05/03 07:37:13;;;;;;;7.33;3.00;;;;;;;18.66;44.91;100557.79;125481;1099;104159;-78
2022/05/03 07:39:48;;;;;;;6.37;2.90;;;;;;;18.84;45.14;100553.44;125359;1099;104200;-77
2022/05/03 07:42:20;;;;;;;5.17;2.93;;;;;;;19.02;44.77;100555.27;125999;1099;104183;-76
2022/05/03 07:44:52;;;;;;;7.07;3.40;;;;;;;19.09;43.93;100545.52;125565;1099;102337;-79
2022/05/03 07:47:37;;;;;;;7.80;3.23;;;;;;;19.23;42.19;100549.10;125536;1099;102396;-79
2022/05/03 07:50:31;;;;;;;3.53;2.63;;;;;;;19.34;40.80;100549.98;125232;1099;102884;-78
2022/05/03 07:53:21;;;;;;;4.93;3.13;;;;;;;19.36;40.16;100549.99;125454;1099;103588;-77
2022/05/03 07:56:02;;;;;;;4.43;2.87;;;;;;;19.43;39.94;100548.20;125441;1099;104232;-79
2022/05/03 07:58:54;;;;;;;5.77;2.77;;;;;;;19.46;39.36;100551.78;125057;1099;102281;-78
2022/05/03 08:01:27;;;;;;;6.20;2.90;;;;;;;19.45;39.19;100543.80;125832;1099;102981;-79
2022/05/03 08:04:15;;;;;;;4.03;2.80;;;;;;;19.43;39.19;100549.12;125220;1099;104252;-79
2022/05/03 08:06:56;;;;;;;4.40;3.13;;;;;;;19.45;38.77;100549.12;125522;1099;104054;-77
2022/05/03 08:09:32;;;;;;;7.00;3.07;;;;;;;19.48;39.14;100546.45;125198;1099;102249;-77
2022/05/03 08:12:11;;;;;;;4.50;2.80;;;;;;;19.55;39.04;100551.75;125787;1099;104174;-78
2022/05/03 08:14:43;;;;;;;5.27;2.77;;;;;;;19.56;38.89;100540.22;125216;1099;104297;-78
2022/05/03 08:17:18;;;;;;;5.00;3.07;;;;;;;19.62;38.83;100534.02;125124;1099;102800;-78
2022/05/03 08:19:54;;;;;;;3.73;3.10;;;;;;;19.70;38.05;100545.54;125361;1099;104235;-78
2022/05/03 08:22:33;;;;;;;12.57;3.07;;;;;;;19.79;38.13;100539.36;125806;1099;102768;-78
2022/05/03 08:27:55;;;;;;;3.07;2.63;;;;;;;19.95;36.51;100537.55;125222;1098;104187;-77
2022/05/03 08:30:28;;;;;;;4.50;2.60;;;;;;;19.93;36.53;100536.67;125070;1099;104233;-77
2022/05/03 08:33:03;;;;;;;7.07;2.77;;;;;;;20.01;36.66;100542.86;124753;1099;104210;-78
2022/05/03 08:35:37;;;;;;;7.60;2.60;;;;;;;20.05;34.36;100525.96;124511;1102;103565;-78
2022/05/03 08:44:00;;;;;;;3.43;2.70;;;;;;;20.48;35.65;100531.14;124475;1099;104271;-77
2022/05/03 08:46:34;;;;;;;5.87;2.50;;;;;;;20.62;35.78;100523.08;124700;1102;104287;-77
2022/05/03 08:49:12;;;;;;;3.77;2.50;;;;;;;20.66;33.68;100521.30;124850;1102;102432;-78
2022/05/03 08:51:46;;;;;;;7.73;3.00;;;;;;;20.59;34.70;100530.22;125246;1099;102429;-78
2022/05/03 08:54:25;;;;;;;7.37;2.73;;;;;;;20.53;33.60;100520.45;124591;1099;104238;-78
2022/05/03 08:57:06;;;;;;;7.40;2.70;;;;;;;20.61;34.69;100520.42;124452;1099;102498;-79
2022/05/03 08:59:52;;;;;;;3.67;2.80;;;;;;;20.63;34.75;100524.86;124462;1102;104651;-78
2022/05/03 09:02:31;;;;;;;5.60;2.67;;;;;;;20.74;34.33;100516.84;124848;1099;104164;-78
2022/05/03 09:05:05;;;;;;;5.17;2.60;;;;;;;20.86;34.40;100513.19;125038;1099;104248;-77
2022/05/03 09:07:38;;;;;;;5.63;2.83;;;;;;;20.94;34.04;100500.72;125124;1099;102771;-78
2022/05/03 09:10:23;;;;;;;3.90;2.90;;;;;;;21.14;34.69;100508.54;125304;1098;103254;-80
2022/05/03 09:13:13;;;;;;;3.70;2.67;;;;;;;21.27;33.83;100490.67;125111;1099;104272;-78
2022/05/03 09:15:47;;;;;;;5.50;2.70;;;;;;;21.49;33.63;100494.06;125129;1098;104184;-77
2022/05/03 09:18:31;;;;;;;2.80;2.50;;;;;;;21.77;33.00;100501.80;125136;1099;102285;-80
2022/05/03 09:24:11;;;;;;;3.35;2.70;;;;;;;22.06;32.62;100487.22;125404;1099;104189;-79
2022/05/03 09:26:42;;;;;;;;;;;;;;;22.14;31.97;100485.33;126008;1099;104214;-80
2022/05/03 09:29:14;;;;;;;5.27;2.77;;;;;;;22.35;32.14;100481.55;125987;1099;104262;-80
2022/05/03 09:31:48;;;;;;;8.97;2.70;;;;;;;22.44;31.10;100485.91;126002;1099;102243;-79
2022/05/03 09:34:28;;;;;;;7.57;2.70;;;;;;;22.46;30.89;100486.76;125297;1099;104399;-81
2022/05/03 09:37:12;;;;;;;4.80;2.40;;;;;;;22.35;31.06;100488.70;125544;1099;104169;-77
2022/05/03 09:39:52;;;;;;;3.17;2.13;;;;;;;22.24;29.08;100481.66;126143;1100;104175;-79
2022/05/03 09:42:29;;;;;;;5.33;2.50;;;;;;;22.35;30.14;100475.34;125117;1098;104166;-78
2022/05/03 09:45:03;;;;;;;3.05;2.20;;;;;;;22.46;30.39;100481.41;125269;1099;103290;-79
2022/05/03 09:47:53;;;;;;;6.27;2.57;;;;;;;22.42;29.48;100482.34;125088;1098;104265;-79
2022/05/03 09:50:44;;;;;;;5.37;2.20;;;;;;;22.51;29.33;100476.88;125320;1099;104188;-78
2022/05/03 09:53:22;;;;;;;4.47;2.80;;;;;;;22.61;29.43;100477.66;125142;1099;104246;-80
2022/05/03 09:55:57;;;;;;;6.73;2.73;;;;;;;22.74;29.23;100475.67;126048;1099;104261;-79
2022/05/03 09:58:39;;;;;;;4.97;2.57;;;;;;;22.92;29.25;100472.72;125937;1099;104109;-79
2022/05/03 10:01:17;;;;;;;5.17;2.40;;;;;;;23.08;28.96;100470.71;125344;1099;102243;-78
2022/05/03 10:03:58;;;;;;;5.53;2.77;;;;;;;23.24;28.47;100465.97;126075;1098;104392;-80
2022/05/03 10:06:33;;;;;;;6.13;2.80;;;;;;;23.37;28.97;100458.61;125107;1099;102525;-80
2022/05/03 10:09:08;;;;;;;3.00;2.23;;;;;;;23.43;27.91;100457.63;124743;1099;111578;-79
2022/05/03 10:11:46;;;;;;;4.67;2.40;;;;;;;23.61;28.39;100462.64;125179;1099;104654;-78
2022/05/03 10:14:20;;;;;;;6.07;2.67;;;;;;;23.67;27.07;100454.49;125961;1098;104216;-79
2022/05/03 10:22:37;;;;;;;3.57;2.30;;;;;;;23.75;27.08;100442.73;125497;1099;104261;-78
2022/05/03 10:28:02;;;;;;;4.80;2.50;;;;;;;23.82;27.03;100439.03;125108;1099;104440;-77
2022/05/03 10:30:38;;;;;;;3.70;2.50;;;;;;;23.76;26.18;100442.70;125191;1099;102861;-78
2022/05/03 10:33:51;;;;;;;4.40;2.57;;;;;;;23.75;26.12;100430.23;125394;1099;102476;-78
2022/05/03 10:36:50;;;;;;;3.70;2.10;;;;;;;23.74;25.59;100438.30;125367;1099;104350;-78
2022/05/03 10:39:25;;;;;;;3.73;2.23;;;;;;;23.69;26.01;100425.00;125459;1099;101979;-78
2022/05/03 10:42:05;;;;;;;3.60;2.63;;;;;;;23.54;26.36;100422.61;125054;1098;102852;-77
2022/05/03 10:44:47;;;;;;;3.52;2.45;;;;;;;23.34;26.12;100423.86;124976;1099;104122;-78
2022/05/03 10:47:39;;;;;;;2.83;2.13;;;;;;;23.20;26.75;100420.55;125166;1099;102294;-78
2022/05/03 10:50:31;;;;;;;4.03;2.63;;;;;;;23.08;26.67;100413.61;125110;1099;104402;-78
2022/05/03 10:53:22;;;;;;;3.90;2.50;;;;;;;22.93;25.23;100415.61;125310;1098;101863;-78
2022/05/03 10:56:23;;;;;;;4.23;2.53;;;;;;;22.61;25.29;100419.70;125127;1099;102319;-80
2022/05/03 10:59:15;;;;;;;4.53;2.50;;;;;;;22.57;25.31;100423.31;124610;1099;104787;-79
2022/05/03 11:02:08;;;;;;;2.60;2.40;;;;;;;22.50;25.19;100416.31;125322;1099;102263;-77
2022/05/03 11:05:14;;;;;;;4.30;2.40;;;;;;;22.42;24.83;100420.86;125070;1099;104172;-79
2022/05/03 11:08:36;;;;;;;3.87;2.50;;;;;;;22.28;25.27;100420.14;125303;1099;102409;-80
2022/05/03 11:11:39;;;;;;;3.50;2.50;;;;;;;22.28;25.72;100412.12;124535;1102;119147;-81
2022/05/03 11:14:57;;;;;;;4.47;2.37;;;;;;;22.42;25.75;100415.52;125236;1102;104328;-80
2022/05/03 11:17:45;;;;;;;3.83;2.50;;;;;;;22.67;25.89;100410.67;124645;1102;104382;-77
2022/05/03 11:20:33;;;;;;;3.67;2.33;;;;;;;22.91;26.28;100401.38;124507;1103;104414;-79
2022/05/03 11:23:25;;;;;;;4.60;2.63;;;;;;;23.15;26.05;100399.22;124771;1102;102575;-78
2022/05/03 11:25:59;;;;;;;4.93;2.40;;;;;;;23.26;25.71;100394.55;124663;1102;103561;-79
2022/05/03 11:28:46;;;;;;;4.63;2.50;;;;;;;23.32;25.14;100385.53;125178;1102;104131;-78
2022/05/03 11:31:32;;;;;;;8.43;3.20;;;;;;;23.40;25.51;100380.03;125038;1102;104239;-80
2022/05/03 11:34:08;;;;;;;5.17;3.07;;;;;;;23.28;25.32;100389.16;124825;1102;104278;-79
2022/05/03 11:36:41;;;;;;;3.53;2.70;;;;;;;23.30;25.98;100377.53;125076;1102;104352;-80
2022/05/03 11:39:43;;;;;;;5.50;2.80;;;;;;;23.39;25.37;100378.25;124689;1103;104314;-80
2022/05/03 11:42:23;;;;;;;7.50;2.70;;;;;;;23.28;25.58;100373.10;125059;1099;108107;-78
2022/05/03 11:44:58;;;;;;;6.50;2.60;;;;;;;23.19;25.57;100371.50;125581;1099;104048;-79
2022/05/03 11:47:54;;;;;;;9.73;3.10;;;;;;;23.12;25.68;100361.80;125054;1098;102298;-79
2022/05/03 11:56:29;;;;;;;5.73;2.30;;;;;;;23.02;25.45;100354.84;124721;1099;104335;-78
2022/05/03 11:59:07;;;;;;;5.90;2.57;;;;;;;22.86;25.43;100348.85;125341;1099;104062;-79
2022/05/03 12:02:18;;;;;;;5.87;2.70;;;;;;;22.80;25.37;100352.54;125350;1099;105569;-78
2022/05/03 12:05:20;;;;;;;5.17;2.70;;;;;;;22.75;25.95;100347.27;125133;1099;104264;-77
2022/05/03 12:08:33;;;;;;;4.17;2.60;;;;;;;22.77;25.55;100348.11;125216;1099;102656;-77
2022/05/03 12:11:17;;;;;;;5.43;2.70;;;;;;;22.63;25.71;100344.80;125440;1099;102069;-79
2022/05/03 12:13:50;;;;;;;8.53;2.57;;;;;;;22.56;25.53;100340.44;125278;1099;104048;-78
2022/05/03 12:16:37;;;;;;;4.47;2.30;;;;;;;22.43;25.83;100339.77;125355;1099;110929;-79
2022/05/03 12:19:23;;;;;;;4.77;2.70;;;;;;;22.30;25.95;100336.41;126281;1098;103213;-78
2022/05/03 12:22:07;;;;;;;8.07;3.00;;;;;;;22.33;26.45;100327.44;125268;1099;101983;-79
2022/05/03 12:24:50;;;;;;;10.37;2.83;;;;;;;22.42;26.16;100327.30;124623;1099;104156;-79
2022/05/03 12:27:50;;;;;;;10.27;2.70;;;;;;;22.50;25.86;100322.73;125662;1099;104153;-79
2022/05/03 12:30:26;;;;;;;8.70;2.67;;;;;;;22.57;26.08;100327.05;125280;1099;102107;-79
2022/05/03 12:33:10;;;;;;;5.47;2.77;;;;;;;22.65;26.42;100320.70;125055;1098;104160;-79
2022/05/03 12:36:39;;;;;;;;;;;;;;;;;;;;;
2022/05/03 12:39:20;;;;;;;5.57;3.03;;;;;;;22.76;26.49;100318.72;125071;1099;104370;-78
2022/05/03 12:42:09;;;;;;;4.00;2.70;;;;;;;22.78;26.65;100314.21;125106;1098;104188;-78
2022/05/03 12:44:57;;;;;;;3.67;2.57;;;;;;;22.77;26.58;100309.80;125022;1099;102742;-80
2022/05/03 12:47:31;;;;;;;;;;;;;;;22.67;25.97;100310.85;124960;1099;102787;-80
2022/05/03 12:50:51;;;;;;;6.50;2.90;;;;;;;22.68;26.15;100299.26;124943;1099;102329;-78
2022/05/03 12:53:33;;;;;;;9.03;2.60;;;;;;;22.65;26.02;100304.66;125047;1099;101959;-78
2022/05/03 13:00:00;;;;;;;6.80;3.03;;;;;;;22.76;26.69;100295.52;125378;1099;104217;-77
2022/05/03 13:02:42;;;;;;;4.90;2.73;;;;;;;22.82;26.21;100297.21;125284;1099;102384;-80